• Join FlightAware (Why Join?)
  • Login
  • US Flag 
03:42AM EDT


 

Airport Tracker/Info


-or-


 

Live Flight TrackerFlight Track Log ✈ RPA3436 ✈ 26-Jun-2013 ✈ KCHS - KDCA

Flight Track Log - Related Links

Times and Time Zones

All times are in EDT time to prevent confusion due to time zone crossing. See the RPA3436 flight status page for this flight to view local times or setup timezone preferences in your user account.

Time Position Orientation Groundspeed Altitude Reporting Facility
EDT Latitude Longitude Course Direction KTS MPH feet Rate Location/Type
08:44AM 32.8631 -80.0511 76° East 166 191 1,500  Level Jacksonville Center
08:45AM 32.8744 -79.9964 76° East 151 174 3,500 2,580 Climbing Jacksonville Center
08:46AM 32.9356 -79.9350 40° Northeast 154 177 6,700 3,300 Climbing Jacksonville Center
08:47AM 33.0150 -79.9322 North 220 253 10,100 2,580 Climbing Jacksonville Center
08:48AM 33.0981 -79.9122 11° North 266 306 11,900 1,860 Climbing Jacksonville Center
08:49AM 33.1928 -79.8619 24° Northeast 331 381 13,900 2,100 Climbing Jacksonville Center
08:50AM 33.2917 -79.8064 25° Northeast 360 414 16,200 2,040 Climbing Jacksonville Center
08:51AM 33.3925 -79.7531 24° Northeast 379 436 18,000 1,800 Climbing Jacksonville Center
08:52AM 33.4994 -79.6919 25° Northeast 405 466 19,900 1,800 Climbing Jacksonville Center
08:53AM 33.6106 -79.6306 25° Northeast 416 479 21,600 1,560 Climbing Jacksonville Center
08:54AM 33.7239 -79.5689 24° Northeast 432 497 23,100 1,380 Climbing Jacksonville Center
08:55AM 33.8389 -79.5047 25° Northeast 444 511 24,400 1,260 Climbing Jacksonville Center
08:56AM 33.9603 -79.4372 25° Northeast 458 527 25,700 1,500 Climbing Jacksonville Center
08:57AM 34.0814 -79.3725 24° Northeast 452 520 27,500 1,620 Climbing Jacksonville Center
08:59AM 34.3272 -79.2283 26° Northeast 493 567 30,900 1,500 Climbing Washington Center
09:00AM 34.4419 -79.1628 25° Northeast 472 543 32,300 1,380 Climbing Washington Center
09:01AM 34.5564 -79.0972 25° Northeast 453 521 33,700 1,200 Climbing Washington Center
09:02AM 34.6711 -79.0314 25° Northeast 448 516 34,800 600 Climbing Washington Center
09:03AM 34.7836 -78.9628 27° Northeast 448 516 35,000 60 Climbing Washington Center
09:04AM 34.9044 -78.8969 24° Northeast 461 531 35,000  Level Washington Center
09:05AM 35.0253 -78.8233 27° Northeast 472 543 35,000  Level Washington Center
09:06AM 35.1419 -78.7569 25° Northeast 464 534 35,000  Level Washington Center
09:07AM 35.2500 -78.6925 26° Northeast 449 517 35,000  Level Washington Center
09:08AM 35.3644 -78.6256 25° Northeast 435 501 35,000  Level Washington Center
09:09AM 35.4767 -78.5583 26° Northeast 442 509 35,000  Level Washington Center
09:10AM 35.5889 -78.4911 26° Northeast 442 509 35,000  Level Washington Center
09:11AM 35.6947 -78.4283 26° Northeast 464 534 35,000  Level Washington Center
09:12AM 35.8069 -78.3633 25° Northeast 450 518 35,000 -1,080 Level Washington Center
09:13AM 35.9189 -78.2978 25° Northeast 450 518 32,900 -2,280 Descending Washington Center
09:14AM 36.0311 -78.2297 26° Northeast 450 518 30,500 -2,520 Descending Washington Center
09:15AM 36.1472 -78.1592 26° Northeast 450 518 28,000 -2,460 Descending Washington Center
09:16AM 36.2636 -78.0881 26° Northeast 450 518 25,600 -1,500 Descending Washington Center
09:17AM 36.3714 -78.0219 26° Northeast 450 518 25,000 -360 Descending Washington Center
09:18AM 36.4811 -77.9556 26° Northeast 440 506 25,000  Level Washington Center
09:19AM 36.5931 -77.8867 26° Northeast 440 506 25,000 -360 Level Washington Center
09:20AM 36.7028 -77.8172 27° Northeast 435 501 24,300 -1,380 Descending Washington Center
09:21AM 36.8106 -77.7528 26° Northeast 435 501 22,300 -1,200 Descending Washington Center
09:22AM 36.9158 -77.6883 26° Northeast 430 495 22,000 -180 Descending Washington Center
09:23AM 37.0192 -77.6236 27° Northeast 424 488 22,000  Level Washington Center
09:24AM 37.1225 -77.5586 27° Northeast 424 488 22,000  Level Washington Center
09:25AM 37.2281 -77.4908 27° Northeast 419 482 22,000  Level Washington Center
09:26AM 37.3333 -77.4281 25° Northeast 414 476 22,000  Level Washington Center
09:27AM 37.4386 -77.3625 26° Northeast 414 476 22,000  Level Washington Center
09:28AM 37.5456 -77.3128 20° North 408 470 22,000  Level Washington Center
09:29AM 37.6564 -77.2889 10° North 408 470 22,000 -1,020 Level Washington Center
09:30AM 37.7694 -77.2653 North 402 463 20,000 -2,040 Descending Washington Center
09:31AM 37.8761 -77.2439 North 396 456 17,900 -2,040 Descending Washington Center
09:32AM 37.9786 -77.2197 11° North 381 438 15,900 -2,040 Descending Washington Center
09:33AM 38.0811 -77.2036 North 376 433 13,900 -2,040 Descending Washington Center
09:34AM 38.1814 -77.1819 10° North 370 426 11,900 -1,920 Descending Washington Center
09:35AM 38.2819 -77.1575 11° North 370 426 10,000 -1,080 Descending Washington Center
09:36AM 38.3739 -77.1411 North 356 410 9,800 -960 Descending Washington Center
09:37AM 38.4594 -77.1242 North 333 383 8,100 -1,620 Descending Washington Center
09:38AM 38.5392 -77.1047 11° North 305 351 6,600 -1,740 Descending Washington Center
09:39AM 38.6164 -77.0875 10° North 291 335 4,600 -2,160 Descending Washington Center
09:40AM 38.6856 -77.0569 19° North 269 310 2,400 -1,320 Descending Washington Center
09:41AM 38.7667 -77.0333 13° North 156 180 1,800 -540 Descending Potomac TRACON